Time;durP1;ratioP1;P1;durP2;ratioP2;P2;SDS_P1;SDS_P2;PMS_P1;PMS_P2;Temp;Humidity;BMP_temperature;BMP_pressure;BME280_temperature;BME280_humidity;BME280_pressure;Samples;Min_cycle;Max_cycle;Signal;HPM_P1;HPM_P2
2023/04/01 00:01:14;;;;;;;;;;;;;;;;;;5052478;28;19925;-74
2023/04/01 00:04:17;;;;;;;;;;;;;;;;;;5052627;28;20289;-74
2023/04/01 00:07:20;;;;;;;;;;;;;;;;;;5041693;28;20307;-74
2023/04/01 00:10:24;;;;;;;;;;;;;;;;;;5058946;28;19919;-75
2023/04/01 00:13:26;;;;;;;;;;;;;;;;;;5059158;28;20425;-75
2023/04/01 00:16:29;;;;;;;;;;;;;;;;;;5059278;28;19966;-75
2023/04/01 00:19:32;;;;;;;;;;;;;;;;;;5059254;28;19936;-75
2023/04/01 00:22:35;;;;;;;;;;;;;;;;;;5058801;28;19928;-75
2023/04/01 00:25:38;;;;;;;;;;;;;;;;;;5046458;28;20427;-75
2023/04/01 00:28:41;;;;;;;;;;;;;;;;;;5058828;28;19927;-74
2023/04/01 00:31:44;;;;;;;;;;;;;;;;;;5058866;28;19920;-75
2023/04/01 00:34:47;;;;;;;;;;;;;;;;;;5069864;28;20330;-75
2023/04/01 00:37:50;;;;;;;;;;;;;;;;;;5058744;28;19935;-75
2023/04/01 00:40:53;;;;;;;;;;;;;;;;;;5046694;28;19982;-75
2023/04/01 00:43:56;;;;;;;;;;;;;;;;;;5046120;28;20015;-75
2023/04/01 00:46:59;;;;;;;;;;;;;;;;;;5046283;28;20002;-75
2023/04/01 00:50:02;;;;;;;;;;;;;;;;;;5059175;28;19920;-75
2023/04/01 00:53:05;;;;;;;;;;;;;;;;;;5046315;28;19939;-75
2023/04/01 00:56:08;;;;;;;;;;;;;;;;;;5058495;28;20011;-77
2023/04/01 00:59:11;;;;;;;;;;;;;;;;;;5046269;28;19920;-77
2023/04/01 01:02:14;;;;;;;;;;;;;;;;;;5046648;28;19955;-77
2023/04/01 01:05:17;;;;;;;;;;;;;;;;;;5046177;28;19927;-77
2023/04/01 01:08:19;;;;;;;;;;;;;;;;;;5058623;28;20387;-76
2023/04/01 01:11:22;;;;;;;;;;;;;;;;;;5058587;28;19919;-77
2023/04/01 01:14:25;;;;;;;;;;;;;;;;;;5068637;28;19919;-76
2023/04/01 01:17:28;;;;;;;;;;;;;;;;;;5058813;28;20059;-76
2023/04/01 01:20:30;;;;;;;;;;;;;;;;;;5042418;28;19920;-76
2023/04/01 01:23:33;;;;;;;;;;;;;;;;;;5055182;28;19958;-77
2023/04/01 01:26:36;;;;;;;;;;;;;;;;;;5043077;28;19924;-77
2023/04/01 01:29:40;;;;;;;;;;;;;;;;;;5055408;28;20393;-77
2023/04/01 01:32:43;;;;;;;;;;;;;;;;;;5040572;28;20012;-76
2023/04/01 01:35:45;;;;;;;;;;;;;;;;;;5042672;28;19920;-75
2023/04/01 01:38:53;;;;;;;;;;;;;;;;;;5042679;28;19924;-76
2023/04/01 01:41:56;;;;;;;;;;;;;;;;;;5042494;28;19927;-76
2023/04/01 01:44:59;;;;;;;;;;;;;;;;;;5042522;28;19967;-76
2023/04/01 01:48:02;;;;;;;;;;;;;;;;;;5054722;28;19966;-76
2023/04/01 01:51:05;;;;;;;;;;;;;;;;;;5042323;28;19919;-76
2023/04/01 01:54:08;;;;;;;;;;;;;;;;;;5042446;28;19920;-76
2023/04/01 01:57:12;;;;;;;;;;;;;;;;;;5065123;28;20004;-76
2023/04/01 02:00:19;;;;;;;;;;;;;;;;;;5065546;28;20000;-76
2023/04/01 02:03:21;;;;;;;;;;;;;;;;;;5042128;28;19984;-77
2023/04/01 02:06:24;;;;;;;;;;;;;;;;;;5054313;28;19963;-76
2023/04/01 02:09:28;;;;;;;;;;;;;;;;;;5042024;28;20455;-77
2023/04/01 02:12:32;;;;;;;;;;;;;;;;;;5041940;28;19938;-77
2023/04/01 02:15:34;;;;;;;;;;;;;;;;;;5054381;28;20000;-77
2023/04/01 02:18:38;;;;;;;;;;;;;;;;;;5041665;28;20054;-77
2023/04/01 02:21:42;;;;;;;;;;;;;;;;;;5041906;28;19932;-77
2023/04/01 02:24:46;;;;;;;;;;;;;;;;;;5041607;28;19971;-77
2023/04/01 02:27:49;;;;;;;;;;;;;;;;;;5041610;28;19919;-77
2023/04/01 02:30:51;;;;;;;;;;;;;;;;;;5041515;28;20320;-76
2023/04/01 02:33:54;;;;;;;;;;;;;;;;;;5064587;28;19939;-77
2023/04/01 02:36:57;;;;;;;;;;;;;;;;;;5041517;28;19919;-77
2023/04/01 02:40:00;;;;;;;;;;;;;;;;;;5054075;28;19919;-77
2023/04/01 02:43:03;;;;;;;;;;;;;;;;;;5053130;28;19923;-76
2023/04/01 02:46:06;;;;;;;;;;;;;;;;;;5053753;28;19924;-77
2023/04/01 02:49:09;;;;;;;;;;;;;;;;;;5052869;28;20016;-77
2023/04/01 02:52:19;;;;;;;;;;;;;;;;;;5053219;28;20012;-77
2023/04/01 02:55:22;;;;;;;;;;;;;;;;;;5063946;28;20054;-77
2023/04/01 02:58:25;;;;;;;;;;;;;;;;;;5040926;28;20335;-74
2023/04/01 03:01:28;;;;;;;;;;;;;;;;;;5041267;28;19919;-74
2023/04/01 03:04:30;;;;;;;;;;;;;;;;;;5053254;28;19967;-75
2023/04/01 03:07:33;;;;;;;;;;;;;;;;;;5053544;28;19920;-75
2023/04/01 03:10:36;;;;;;;;;;;;;;;;;;5040899;28;19939;-75
2023/04/01 03:13:40;;;;;;;;;;;;;;;;;;5053215;28;19919;-75
2023/04/01 03:16:42;;;;;;;;;;;;;;;;;;5040721;28;19966;-75
2023/04/01 03:19:45;;;;;;;;;;;;;;;;;;5040651;28;19919;-75
2023/04/01 03:22:49;;;;;;;;;;;;;;;;;;5063557;28;20404;-75
2023/04/01 03:25:52;;;;;;;;;;;;;;;;;;5039933;28;19924;-75
2023/04/01 03:28:55;;;;;;;;;;;;;;;;;;5052213;28;20272;-75
2023/04/01 03:31:59;;;;;;;;;;;;;;;;;;5052543;28;19919;-75
2023/04/01 03:35:02;;;;;;;;;;;;;;;;;;5052825;28;19920;-75
2023/04/01 03:38:05;;;;;;;;;;;;;;;;;;5052673;28;19923;-74
2023/04/01 03:41:07;;;;;;;;;;;;;;;;;;5040419;28;19919;-74
2023/04/01 03:44:10;;;;;;;;;;;;;;;;;;5040353;28;19959;-75
2023/04/01 03:47:13;;;;;;;;;;;;;;;;;;5052645;28;19986;-75
2023/04/01 03:50:15;;;;;;;;;;;;;;;;;;5052599;28;19920;-75
2023/04/01 03:53:18;;;;;;;;;;;;;;;;;;5039760;28;19965;-75
2023/04/01 03:56:23;;;;;;;;;;;;;;;;;;5040010;28;19971;-76
2023/04/01 03:59:25;;;;;;;;;;;;;;;;;;5051509;28;20005;-76
2023/04/01 04:02:28;;;;;;;;;;;;;;;;;;5039742;28;19958;-76
2023/04/01 04:05:31;;;;;;;;;;;;;;;;;;5052258;28;19962;-77
2023/04/01 04:08:34;;;;;;;;;;;;;;;;;;5052759;28;19940;-77
2023/04/01 04:11:37;;;;;;;;;;;;;;;;;;5052262;28;20520;-76
2023/04/01 04:14:40;;;;;;;;;;;;;;;;;;5038636;28;20285;-76
2023/04/01 04:17:43;;;;;;;;;;;;;;;;;;5040048;28;19963;-75
2023/04/01 04:20:48;;;;;;;;;;;;;;;;;;5051445;28;20330;-76
2023/04/01 04:23:51;;;;;;;;;;;;;;;;;;5039708;28;19955;-76
2023/04/01 04:26:55;;;;;;;;;;;;;;;;;;5040033;28;19963;-76
2023/04/01 04:29:58;;;;;;;;;;;;;;;;;;5040266;28;19959;-75
2023/04/01 04:33:01;;;;;;;;;;;;;;;;;;5039556;28;19943;-75
2023/04/01 04:36:04;;;;;;;;;;;;;;;;;;5039623;28;19979;-76
2023/04/01 04:39:07;;;;;;;;;;;;;;;;;;5052148;28;19924;-75
2023/04/01 04:42:11;;;;;;;;;;;;;;;;;;5063172;28;19920;-75
2023/04/01 04:45:13;;;;;;;;;;;;;;;;;;5039286;28;20288;-75
2023/04/01 04:48:22;;;;;;;;;;;;;;;;;;5039902;28;19920;-76
2023/04/01 04:51:25;;;;;;;;;;;;;;;;;;5039629;28;19920;-76
2023/04/01 04:54:28;;;;;;;;;;;;;;;;;;5040228;28;20288;-76
2023/04/01 04:57:33;;;;;;;;;;;;;;;;;;5043169;28;19927;-75
2023/04/01 05:00:36;;;;;;;;;;;;;;;;;;5066436;28;19939;-76
2023/04/01 05:03:43;;;;;;;;;;;;;;;;;;5055751;28;20375;-76
2023/04/01 05:06:45;;;;;;;;;;;;;;;;;;5054408;28;19923;-76
2023/04/01 05:09:48;;;;;;;;;;;;;;;;;;5055448;28;19920;-76
2023/04/01 05:12:52;;;;;;;;;;;;;;;;;;5054495;28;20288;-76
2023/04/01 05:15:57;;;;;;;;;;;;;;;;;;5042862;28;19991;-76
2023/04/01 05:19:00;;;;;;;;;;;;;;;;;;5066151;28;19939;-76
2023/04/01 05:22:03;;;;;;;;;;;;;;;;;;5055577;28;20060;-76
2023/04/01 05:25:06;;;;;;;;;;;;;;;;;;5042698;28;19924;-76
2023/04/01 05:28:10;;;;;;;;;;;;;;;;;;5066237;28;20039;-76
2023/04/01 05:31:13;;;;;;;;;;;;;;;;;;5043088;28;20027;-73
2023/04/01 05:34:18;;;;;;;;;;;;;;;;;;5065843;28;19919;-76
2023/04/01 05:37:22;;;;;;;;;;;;;;;;;;5042971;28;19959;-76
2023/04/01 05:40:26;;;;;;;;;;;;;;;;;;5055108;28;19971;-76
2023/04/01 05:43:31;;;;;;;;;;;;;;;;;;5054839;28;19920;-76
2023/04/01 05:46:39;;;;;;;;;;;;;;;;;;5053778;28;19963;-76
2023/04/01 05:49:55;;;;;;;;;;;;;;;;;;5065568;28;20374;-73
2023/04/01 05:52:58;;;;;;;;;;;;;;;;;;5034183;28;20429;-76
2023/04/01 05:56:01;;;;;;;;;;;;;;;;;;5041931;28;19967;-75
2023/04/01 05:59:06;;;;;;;;;;;;;;;;;;5063846;28;21357;-75
2023/04/01 06:02:10;;;;;;;;;;;;;;;;;;5065411;28;20066;-76
2023/04/01 06:05:13;;;;;;;;;;;;;;;;;;5041426;28;19970;-76
2023/04/01 06:11:48;;;;;;;;;;;;;;;;;;5065052;28;19958;-76
2023/04/01 06:14:51;;;;;;;;;;;;;;;;;;5065087;28;19920;-74
2023/04/01 06:17:54;;;;;;;;;;;;;;;;;;5054193;28;20347;-76
2023/04/01 06:20:59;;;;;;;;;;;;;;;;;;5041940;28;19935;-75
2023/04/01 06:24:01;;;;;;;;;;;;;;;;;;5041718;28;19978;-76
2023/04/01 06:27:05;;;;;;;;;;;;;;;;;;5053871;28;19923;-76
2023/04/01 06:30:09;;;;;;;;;;;;;;;;;;5064568;28;20008;-76
2023/04/01 06:33:12;;;;;;;;;;;;;;;;;;5041504;28;20423;-77
2023/04/01 06:36:15;;;;;;;;;;;;;;;;;;5041516;28;19920;-77
2023/04/01 06:39:18;;;;;;;;;;;;;;;;;;5041320;28;19990;-76
2023/04/01 06:42:21;;;;;;;;;;;;;;;;;;5053803;28;20339;-76
2023/04/01 06:45:25;;;;;;;;;;;;;;;;;;5064343;28;19927;-77
2023/04/01 06:48:49;;;;;;;;;;;;;;;;;;5053508;28;20395;-78
2023/04/01 06:52:31;;;;;;;;;;;;;;;;;;5011631;28;19920;-77
2023/04/01 06:56:07;;;;;;;;;;;;;;;;;;5004138;28;19928;-78
2023/04/01 06:59:10;;;;;;;;;;;;;;;;;;5033440;28;20396;-77
2023/04/01 07:02:13;;;;;;;;;;;;;;;;;;5020947;28;19919;-77
2023/04/01 07:05:21;;;;;;;;;;;;;;;;;;5033676;28;19924;-77
2023/04/01 07:08:24;;;;;;;;;;;;;;;;;;5021642;28;20399;-78
2023/04/01 07:11:29;;;;;;;;;;;;;;;;;;5031581;28;19920;-78
2023/04/01 07:14:38;;;;;;;;;;;;;;;;;;5033611;28;19931;-78
2023/04/01 07:17:41;;;;;;;;;;;;;;;;;;5032262;28;19919;-80
2023/04/01 07:20:43;;;;;;;;;;;;;;;;;;5032272;28;19919;-80
2023/04/01 07:23:47;;;;;;;;;;;;;;;;;;5033443;28;19920;-81
2023/04/01 07:27:16;;;;;;;;;;;;;;;;;;5032834;28;19925;-78
2023/04/01 07:30:20;;;;;;;;;;;;;;;;;;5020603;28;19959;-77
2023/04/01 07:33:23;;;;;;;;;;;;;;;;;;5020962;28;19920;-76
2023/04/01 07:36:26;;;;;;;;;;;;;;;;;;5020501;28;19921;-78
2023/04/01 07:39:28;;;;;;;;;;;;;;;;;;5020516;28;20297;-77
2023/04/01 07:42:41;;;;;;;;;;;;;;;;;;5020306;28;19920;-77
2023/04/01 07:45:44;;;;;;;;;;;;;;;;;;5020466;28;19977;-74
2023/04/01 07:48:47;;;;;;;;;;;;;;;;;;5016124;28;20400;-76
2023/04/01 07:51:51;;;;;;;;;;;;;;;;;;5032731;28;19920;-76
2023/04/01 07:54:54;;;;;;;;;;;;;;;;;;5032024;28;19919;-77
2023/04/01 07:57:57;;;;;;;;;;;;;;;;;;5072443;28;19923;-77
2023/04/01 08:01:01;;;;;;;;;;;;;;;;;;5060178;28;20514;-76
2023/04/01 08:04:11;;;;;;;;;;;;;;;;;;5060068;28;19974;-76
2023/04/01 08:07:25;;;;;;;;;;;;;;;;;;5072391;28;19970;-77
2023/04/01 08:11:04;;;;;;;;;;;;;;;;;;5072266;28;20355;-78
2023/04/01 08:14:30;;;;;;;;;;;;;;;;;;5067646;28;20452;-80
2023/04/01 08:17:52;;;;;;;;;;;;;;;;;;5072500;28;19919;-77
2023/04/01 08:20:55;;;;;;;;;;;;;;;;;;5059572;28;19923;-77
2023/04/01 08:23:58;;;;;;;;;;;;;;;;;;5060089;28;20407;-79
2023/04/01 08:27:01;;;;;;;;;;;;;;;;;;5058533;28;20476;-77
2023/04/01 08:30:05;;;;;;;;;;;;;;;;;;5063161;28;19919;-78
2023/04/01 08:33:10;;;;;;;;;;;;;;;;;;5063983;28;19919;-78
2023/04/01 08:36:15;;;;;;;;;;;;;;;;;;5076395;28;19920;-77
2023/04/01 08:39:21;;;;;;;;;;;;;;;;;;5063067;28;20353;-76
2023/04/01 08:42:33;;;;;;;;;;;;;;;;;;5063622;28;20456;-75
2023/04/01 08:45:52;;;;;;;;;;;;;;;;;;5063420;28;20293;-75
2023/04/01 08:48:57;;;;;;;;;;;;;;;;;;5075815;28;20062;-74
2023/04/01 08:52:01;;;;;;;;;;;;;;;;;;5076196;28;19982;-78
2023/04/01 08:55:03;;;;;;;;;;;;;;;;;;5063142;28;19965;-76
2023/04/01 08:58:27;;;;;;;;;;;;;;;;;;5074235;28;19922;-73
2023/04/01 09:01:51;;;;;;;;;;;;;;;;;;5063153;28;19919;-76
2023/04/01 09:05:13;;;;;;;;;;;;;;;;;;5062858;28;20368;-75
2023/04/01 09:08:17;;;;;;;;;;;;;;;;;;5060734;28;20399;-75
2023/04/01 09:11:20;;;;;;;;;;;;;;;;;;5074479;28;19919;-77
2023/04/01 09:14:29;;;;;;;;;;;;;;;;;;5075637;28;19969;-75
2023/04/01 09:17:49;;;;;;;;;;;;;;;;;;5061758;28;19920;-76
2023/04/01 09:20:53;;;;;;;;;;;;;;;;;;5061343;28;19920;-76
2023/04/01 09:23:56;;;;;;;;;;;;;;;;;;5061877;28;19954;-77
2023/04/01 09:26:59;;;;;;;;;;;;;;;;;;5061561;28;19982;-77
2023/04/01 09:30:02;;;;;;;;;;;;;;;;;;5061725;28;19957;-74
2023/04/01 09:33:09;;;;;;;;;;;;;;;;;;5062758;28;19923;-80
2023/04/01 09:36:26;;;;;;;;;;;;;;;;;;5061790;28;20374;-78
2023/04/01 09:39:30;;;;;;;;;;;;;;;;;;5075048;28;20399;-81
2023/04/01 09:42:33;;;;;;;;;;;;;;;;;;5063250;28;19920;-83
2023/04/01 09:45:46;;;;;;;;;;;;;;;;;;5062363;28;19923;-73
2023/04/01 09:48:49;;;;;;;;;;;;;;;;;;5062461;28;19920;-72
2023/04/01 09:51:55;;;;;;;;;;;;;;;;;;5062636;28;19962;-72
2023/04/01 09:55:01;;;;;;;;;;;;;;;;;;5062197;28;20432;-70
2023/04/01 09:58:05;;;;;;;;;;;;;;;;;;5062246;28;19924;-72
2023/04/01 10:01:27;;;;;;;;;;;;;;;;;;5074713;28;20002;-73
2023/04/01 10:04:30;;;;;;;;;;;;;;;;;;5062335;28;19919;-76
2023/04/01 10:07:33;;;;;;;;;;;;;;;;;;5050859;28;19918;-71
2023/04/01 10:10:36;;;;;;;;;;;;;;;;;;5062181;28;19920;-72
2023/04/01 10:13:41;;;;;;;;;;;;;;;;;;5074891;28;20292;-72
2023/04/01 10:16:43;;;;;;;;;;;;;;;;;;5061888;28;19919;-73
2023/04/01 10:19:46;;;;;;;;;;;;;;;;;;5074267;28;20276;-74
2023/04/01 10:22:49;;;;;;;;;;;;;;;;;;5061991;28;20284;-75
2023/04/01 10:25:52;;;;;;;;;;;;;;;;;;5061930;28;20004;-76
2023/04/01 10:28:59;;;;;;;;;;;;;;;;;;5061638;28;20394;-77
2023/04/01 10:32:20;;;;;;;;;;;;;;;;;;5061648;28;19965;-74
2023/04/01 10:35:23;;;;;;;;;;;;;;;;;;5061773;28;19965;-74
2023/04/01 10:38:26;;;;;;;;;;;;;;;;;;5061307;28;20446;-74
2023/04/01 10:41:29;;;;;;;;;;;;;;;;;;5060789;28;20022;-74
2023/04/01 10:44:52;;;;;;;;;;;;;;;;;;5072599;28;20407;-74
2023/04/01 10:48:03;;;;;;;;;;;;;;;;;;5061338;28;20289;-74
2023/04/01 10:51:06;;;;;;;;;;;;;;;;;;5061145;28;20359;-74
2023/04/01 10:54:10;;;;;;;;;;;;;;;;;;5061193;28;19919;-74
2023/04/01 10:57:36;;;;;;;;;;;;;;;;;;5073185;28;19974;-75
2023/04/01 11:00:57;;;;;;;;;;;;;;;;;;5074792;28;19920;-77
2023/04/01 11:04:23;;;;;;;;;;;;;;;;;;5073303;28;19919;-77
2023/04/01 11:07:52;;;;;;;;;;;;;;;;;;5067868;28;20039;-76
2023/04/01 11:10:55;;;;;;;;;;;;;;;;;;5073277;28;20287;-74
2023/04/01 11:13:58;;;;;;;;;;;;;;;;;;5073291;28;19920;-77
2023/04/01 11:17:01;;;;;;;;;;;;;;;;;;5060993;28;19978;-77
2023/04/01 11:20:03;;;;;;;;;;;;;;;;;;5060742;28;19920;-77
2023/04/01 11:23:06;;;;;;;;;;;;;;;;;;5060612;28;19920;-77
2023/04/01 11:26:09;;;;;;;;;;;;;;;;;;5060437;28;19977;-76
2023/04/01 11:29:39;;;;;;;;;;;;;;;;;;5072118;28;19962;-78
2023/04/01 11:32:54;;;;;;;;;;;;;;;;;;5060484;28;19919;-79
2023/04/01 11:35:57;;;;;;;;;;;;;;;;;;5072753;28;19970;-75
2023/04/01 11:39:01;;;;;;;;;;;;;;;;;;5060731;28;20375;-74
2023/04/01 11:42:22;;;;;;;;;;;;;;;;;;5072708;28;19923;-74
2023/04/01 11:45:44;;;;;;;;;;;;;;;;;;5072780;28;20344;-74
2023/04/01 11:48:53;;;;;;;;;;;;;;;;;;5058745;28;19958;-74
2023/04/01 11:51:57;;;;;;;;;;;;;;;;;;5059525;28;19920;-74
2023/04/01 11:55:00;;;;;;;;;;;;;;;;;;5072050;28;20007;-76
2023/04/01 11:58:08;;;;;;;;;;;;;;;;;;5072563;28;19924;-75
2023/04/01 12:01:11;;;;;;;;;;;;;;;;;;5072891;28;19919;-76
2023/04/01 12:04:14;;;;;;;;;;;;;;;;;;5072008;28;20410;-75
2023/04/01 12:07:17;;;;;;;;;;;;;;;;;;5072673;28;20005;-76
2023/04/01 12:10:26;;;;;;;;;;;;;;;;;;5072886;28;19919;-75
2023/04/01 12:13:29;;;;;;;;;;;;;;;;;;5072847;28;20395;-75
2023/04/01 12:16:32;;;;;;;;;;;;;;;;;;5072336;28;19919;-75
2023/04/01 12:19:35;;;;;;;;;;;;;;;;;;5072375;28;20391;-75
2023/04/01 12:22:40;;;;;;;;;;;;;;;;;;5072196;28;19974;-75
2023/04/01 12:25:42;;;;;;;;;;;;;;;;;;5072401;28;20453;-74
2023/04/01 12:28:46;;;;;;;;;;;;;;;;;;5072327;28;19970;-73
2023/04/01 12:31:48;;;;;;;;;;;;;;;;;;5072290;28;19935;-74
2023/04/01 12:34:52;;;;;;;;;;;;;;;;;;5072292;28;19966;-74
2023/04/01 12:37:55;;;;;;;;;;;;;;;;;;5072467;28;19920;-73
2023/04/01 12:40:58;;;;;;;;;;;;;;;;;;5072539;28;19974;-74
2023/04/01 12:44:02;;;;;;;;;;;;;;;;;;5072136;28;20504;-73
2023/04/01 12:47:08;;;;;;;;;;;;;;;;;;5060079;28;20395;-75
2023/04/01 12:50:37;;;;;;;;;;;;;;;;;;5069940;28;19966;-75
2023/04/01 12:57:33;;;;;;;;;;;;;;;;;;5031379;28;19967;-74
2023/04/01 13:00:36;;;;;;;;;;;;;;;;;;5032141;28;19920;-74
2023/04/01 13:03:39;;;;;;;;;;;;;;;;;;5032204;28;20015;-74
2023/04/01 13:06:42;;;;;;;;;;;;;;;;;;5032209;28;19924;-74
2023/04/01 13:09:47;;;;;;;;;;;;;;;;;;5031908;28;20300;-74
2023/04/01 13:12:50;;;;;;;;;;;;;;;;;;5032411;28;19971;-73
2023/04/01 13:15:53;;;;;;;;;;;;;;;;;;5032415;28;19924;-73
2023/04/01 13:18:56;;;;;;;;;;;;;;;;;;5035829;28;19920;-74
2023/04/01 13:22:00;;;;;;;;;;;;;;;;;;5035475;28;19982;-71
2023/04/01 13:25:02;;;;;;;;;;;;;;;;;;5034468;28;20400;-73
2023/04/01 13:28:05;;;;;;;;;;;;;;;;;;5035242;28;19920;-72
2023/04/01 13:31:09;;;;;;;;;;;;;;;;;;5035382;28;19966;-73
2023/04/01 13:34:11;;;;;;;;;;;;;;;;;;5035379;28;19920;-74
2023/04/01 13:37:15;;;;;;;;;;;;;;;;;;5035581;28;20004;-74
2023/04/01 13:40:17;;;;;;;;;;;;;;;;;;5035245;28;20008;-73
2023/04/01 13:43:21;;;;;;;;;;;;;;;;;;5035551;28;20000;-73
2023/04/01 13:46:24;;;;;;;;;;;;;;;;;;5035168;28;20006;-71
2023/04/01 13:49:26;;;;;;;;;;;;;;;;;;5035046;28;19920;-71
2023/04/01 13:52:29;;;;;;;;;;;;;;;;;;5034975;28;19920;-71
2023/04/01 13:55:32;;;;;;;;;;;;;;;;;;5045658;28;19924;-74
2023/04/01 13:58:35;;;;;;;;;;;;;;;;;;5074919;28;19920;-72
2023/04/01 14:01:38;;;;;;;;;;;;;;;;;;5073124;28;20229;-72
2023/04/01 14:04:41;;;;;;;;;;;;;;;;;;5073059;28;19924;-72
2023/04/01 14:07:43;;;;;;;;;;;;;;;;;;5073771;28;20116;-73
2023/04/01 14:10:46;;;;;;;;;;;;;;;;;;5073618;28;19956;-73
2023/04/01 14:13:49;;;;;;;;;;;;;;;;;;5073463;28;20009;-72
2023/04/01 14:16:54;;;;;;;;;;;;;;;;;;5074402;28;19966;-72
2023/04/01 14:19:59;;;;;;;;;;;;;;;;;;5074510;28;19966;-73
2023/04/01 14:23:02;;;;;;;;;;;;;;;;;;5074284;28;19919;-72
2023/04/01 14:26:06;;;;;;;;;;;;;;;;;;5073041;28;19923;-73
2023/04/01 14:29:09;;;;;;;;;;;;;;;;;;5074220;28;20067;-74
2023/04/01 14:32:12;;;;;;;;;;;;;;;;;;5074472;28;19920;-74
2023/04/01 14:35:16;;;;;;;;;;;;;;;;;;5074152;28;19919;-72
2023/04/01 14:38:18;;;;;;;;;;;;;;;;;;5061626;28;19925;-74
2023/04/01 14:41:21;;;;;;;;;;;;;;;;;;5073844;28;20005;-72
2023/04/01 14:44:25;;;;;;;;;;;;;;;;;;5074192;28;19919;-73
2023/04/01 14:47:28;;;;;;;;;;;;;;;;;;5074158;28;19962;-73
2023/04/01 14:50:31;;;;;;;;;;;;;;;;;;5073917;28;20272;-72
2023/04/01 14:53:34;;;;;;;;;;;;;;;;;;5073945;28;19931;-75
2023/04/01 14:56:37;;;;;;;;;;;;;;;;;;5073330;28;19927;-74
2023/04/01 14:59:40;;;;;;;;;;;;;;;;;;5073531;28;20062;-73
2023/04/01 15:02:43;;;;;;;;;;;;;;;;;;5073571;28;19965;-73
2023/04/01 15:05:48;;;;;;;;;;;;;;;;;;5084403;28;19998;-73
2023/04/01 15:08:54;;;;;;;;;;;;;;;;;;5061065;28;19923;-73
2023/04/01 15:11:58;;;;;;;;;;;;;;;;;;5073487;28;19959;-76
2023/04/01 15:15:02;;;;;;;;;;;;;;;;;;5073016;28;19920;-75
2023/04/01 15:18:06;;;;;;;;;;;;;;;;;;5073031;28;20053;-76
2023/04/01 15:21:09;;;;;;;;;;;;;;;;;;5073137;28;19919;-74
2023/04/01 15:24:15;;;;;;;;;;;;;;;;;;5072471;28;20046;-75
2023/04/01 15:27:19;;;;;;;;;;;;;;;;;;5073304;28;19970;-75
2023/04/01 15:30:22;;;;;;;;;;;;;;;;;;5072956;28;19996;-73
2023/04/01 15:33:25;;;;;;;;;;;;;;;;;;5059929;28;20057;-73
2023/04/01 15:36:29;;;;;;;;;;;;;;;;;;5072798;28;19920;-73
2023/04/01 15:39:32;;;;;;;;;;;;;;;;;;5072174;28;19919;-73
2023/04/01 15:42:35;;;;;;;;;;;;;;;;;;5072826;28;19974;-73
2023/04/01 15:45:39;;;;;;;;;;;;;;;;;;5072718;28;19962;-73
2023/04/01 15:48:45;;;;;;;;;;;;;;;;;;5072751;28;19919;-73
2023/04/01 15:51:49;;;;;;;;;;;;;;;;;;5072598;28;19920;-73
2023/04/01 15:54:55;;;;;;;;;;;;;;;;;;5072832;28;20310;-74
2023/04/01 15:57:59;;;;;;;;;;;;;;;;;;5072629;28;19922;-73
2023/04/01 16:01:02;;;;;;;;;;;;;;;;;;5072614;28;19920;-74
2023/04/01 16:04:05;;;;;;;;;;;;;;;;;;5072769;28;19934;-74
2023/04/01 16:07:09;;;;;;;;;;;;;;;;;;5060065;28;19923;-74
2023/04/01 16:10:16;;;;;;;;;;;;;;;;;;5072452;28;19962;-74
2023/04/01 16:13:19;;;;;;;;;;;;;;;;;;5072494;28;19966;-74
2023/04/01 16:16:22;;;;;;;;;;;;;;;;;;5072856;28;19919;-74
2023/04/01 16:19:25;;;;;;;;;;;;;;;;;;5071782;28;20392;-74
2023/04/01 16:22:35;;;;;;;;;;;;;;;;;;5070740;28;19944;-74
2023/04/01 16:25:38;;;;;;;;;;;;;;;;;;5082209;28;20002;-74
2023/04/01 16:28:42;;;;;;;;;;;;;;;;;;5071410;28;19920;-74
2023/04/01 16:31:45;;;;;;;;;;;;;;;;;;5072561;28;19919;-75
2023/04/01 16:34:58;;;;;;;;;;;;;;;;;;5072295;28;19973;-75
2023/04/01 16:45:58;;;;;;;;;;;;;;;;;;5021923;28;19963;-75
2023/04/01 16:49:01;;;;;;;;;;;;;;;;;;5038965;28;19919;-75
2023/04/01 16:56:25;;;;;;;;;;;;;;;;;;5072030;28;19978;-75
2023/04/01 16:59:28;;;;;;;;;;;;;;;;;;5074945;28;19919;-75
2023/04/01 17:02:31;;;;;;;;;;;;;;;;;;5075930;28;19919;-76
2023/04/01 17:05:34;;;;;;;;;;;;;;;;;;5075817;28;20417;-75
2023/04/01 17:09:26;;;;;;;;;;;;;;;;;;5076099;28;20065;-77
2023/04/01 17:12:13;;;;;;;;;;;;;;;;;;5075896;28;19982;-76
2023/04/01 17:15:17;;;;;;;;;;;;;;;;;;5075871;28;19927;-75
2023/04/01 17:18:21;;;;;;;;;;;;;;;;;;5076060;28;19919;-77
2023/04/01 17:21:24;;;;;;;;;;;;;;;;;;5063665;28;19919;-74
2023/04/01 17:24:37;;;;;;;;;;;;;;;;;;5065301;28;19919;-75
2023/04/01 17:27:40;;;;;;;;;;;;;;;;;;5074940;28;19924;-75
2023/04/01 17:30:45;;;;;;;;;;;;;;;;;;5073878;28;19936;-75
2023/04/01 17:33:49;;;;;;;;;;;;;;;;;;5073437;28;20045;-75
2023/04/01 17:36:52;;;;;;;;;;;;;;;;;;5075246;28;20380;-74
2023/04/01 17:39:55;;;;;;;;;;;;;;;;;;5075268;28;19919;-75
2023/04/01 17:43:00;;;;;;;;;;;;;;;;;;5075185;28;19919;-75
2023/04/01 17:46:03;;;;;;;;;;;;;;;;;;5062725;28;20011;-74
2023/04/01 17:49:06;;;;;;;;;;;;;;;;;;5084303;28;19974;-75
2023/04/01 17:52:09;;;;;;;;;;;;;;;;;;5093303;28;19919;-75
2023/04/01 17:55:12;;;;;;;;;;;;;;;;;;5094476;28;20037;-74
2023/04/01 17:58:15;;;;;;;;;;;;;;;;;;5093070;28;19981;-75
2023/04/01 18:01:18;;;;;;;;;;;;;;;;;;5094078;28;19919;-74
2023/04/01 18:04:21;;;;;;;;;;;;;;;;;;5095138;28;19919;-75
2023/04/01 18:07:24;;;;;;;;;;;;;;;;;;5082365;28;19922;-75
2023/04/01 18:10:26;;;;;;;;;;;;;;;;;;5094907;28;20470;-74
2023/04/01 18:13:30;;;;;;;;;;;;;;;;;;5094802;28;19969;-73
2023/04/01 18:16:35;;;;;;;;;;;;;;;;;;5094808;28;20296;-73
2023/04/01 18:19:39;;;;;;;;;;;;;;;;;;5095080;28;19919;-73
2023/04/01 18:22:42;;;;;;;;;;;;;;;;;;5094338;28;19918;-74
2023/04/01 18:25:47;;;;;;;;;;;;;;;;;;5094533;28;20036;-75
2023/04/01 18:28:51;;;;;;;;;;;;;;;;;;5094492;28;19919;-73
2023/04/01 18:31:54;;;;;;;;;;;;;;;;;;5094446;28;19963;-73
2023/04/01 18:34:58;;;;;;;;;;;;;;;;;;5094289;28;19935;-74
2023/04/01 18:38:01;;;;;;;;;;;;;;;;;;5094383;28;19919;-74
2023/04/01 18:41:04;;;;;;;;;;;;;;;;;;5094213;28;20430;-73
2023/04/01 18:44:08;;;;;;;;;;;;;;;;;;5094702;28;19919;-74
2023/04/01 18:47:11;;;;;;;;;;;;;;;;;;5094134;28;19973;-73
2023/04/01 18:50:15;;;;;;;;;;;;;;;;;;5094146;28;19923;-76
2023/04/01 18:53:18;;;;;;;;;;;;;;;;;;5094061;28;19919;-76
2023/04/01 18:56:22;;;;;;;;;;;;;;;;;;5093873;28;19923;-77
2023/04/01 18:59:27;;;;;;;;;;;;;;;;;;5081515;28;20291;-74
2023/04/01 19:02:30;;;;;;;;;;;;;;;;;;5094118;28;19919;-73
2023/04/01 19:05:35;;;;;;;;;;;;;;;;;;5094037;28;19966;-72
2023/04/01 19:08:40;;;;;;;;;;;;;;;;;;5093843;28;20056;-72
2023/04/01 19:11:49;;;;;;;;;;;;;;;;;;5081583;28;19965;-73
2023/04/01 19:14:53;;;;;;;;;;;;;;;;;;5093227;28;19985;-74
2023/04/01 19:17:57;;;;;;;;;;;;;;;;;;5093608;28;19920;-73
2023/04/01 19:21:00;;;;;;;;;;;;;;;;;;5093665;28;19918;-73
2023/04/01 19:24:03;;;;;;;;;;;;;;;;;;5093524;28;20336;-73
2023/04/01 19:27:08;;;;;;;;;;;;;;;;;;5080980;28;19969;-74
2023/04/01 19:30:11;;;;;;;;;;;;;;;;;;5093423;28;19964;-73
2023/04/01 19:33:14;;;;;;;;;;;;;;;;;;5093367;28;20345;-73
2023/04/01 19:36:17;;;;;;;;;;;;;;;;;;5093261;28;20378;-73
2023/04/01 19:39:21;;;;;;;;;;;;;;;;;;5093467;28;20049;-73
2023/04/01 19:42:24;;;;;;;;;;;;;;;;;;5069459;28;19938;-75
2023/04/01 19:45:27;;;;;;;;;;;;;;;;;;5093063;28;19923;-72
2023/04/01 19:48:31;;;;;;;;;;;;;;;;;;5093026;28;20431;-73
2023/04/01 19:51:34;;;;;;;;;;;;;;;;;;5080013;28;20302;-72
2023/04/01 19:54:37;;;;;;;;;;;;;;;;;;5093083;28;20016;-72
2023/04/01 19:57:41;;;;;;;;;;;;;;;;;;5092875;28;19973;-72
2023/04/01 20:00:44;;;;;;;;;;;;;;;;;;5093093;28;20077;-72
2023/04/01 20:03:47;;;;;;;;;;;;;;;;;;5093379;28;19918;-72
2023/04/01 20:06:50;;;;;;;;;;;;;;;;;;5092868;28;19923;-73
2023/04/01 20:09:53;;;;;;;;;;;;;;;;;;5080288;28;20430;-73
2023/04/01 20:12:56;;;;;;;;;;;;;;;;;;5092937;28;19919;-73
2023/04/01 20:15:59;;;;;;;;;;;;;;;;;;5092901;28;19918;-73
2023/04/01 20:19:02;;;;;;;;;;;;;;;;;;5092761;28;20284;-72
2023/04/01 20:22:05;;;;;;;;;;;;;;;;;;5092906;28;19919;-72
2023/04/01 20:25:09;;;;;;;;;;;;;;;;;;5095051;28;19965;-72
2023/04/01 20:28:14;;;;;;;;;;;;;;;;;;5097220;28;19957;-72
2023/04/01 20:31:17;;;;;;;;;;;;;;;;;;5096955;28;19957;-72
2023/04/01 20:34:22;;;;;;;;;;;;;;;;;;5096858;28;19923;-73
2023/04/01 20:37:25;;;;;;;;;;;;;;;;;;5096815;28;20052;-72
2023/04/01 20:40:30;;;;;;;;;;;;;;;;;;5097101;28;19920;-73
2023/04/01 20:43:34;;;;;;;;;;;;;;;;;;5097090;28;19936;-73
2023/04/01 20:46:37;;;;;;;;;;;;;;;;;;5096583;28;19923;-73
2023/04/01 20:49:40;;;;;;;;;;;;;;;;;;5096482;28;20497;-73
2023/04/01 20:52:43;;;;;;;;;;;;;;;;;;5096512;28;19957;-73
2023/04/01 20:55:46;;;;;;;;;;;;;;;;;;5096176;28;19938;-74
2023/04/01 20:58:49;;;;;;;;;;;;;;;;;;5096490;28;19923;-73
2023/04/01 21:01:51;;;;;;;;;;;;;;;;;;5096248;28;19972;-73
2023/04/01 21:04:54;;;;;;;;;;;;;;;;;;5096174;28;19923;-73
2023/04/01 21:07:57;;;;;;;;;;;;;;;;;;5096141;28;20379;-73
2023/04/01 21:11:00;;;;;;;;;;;;;;;;;;5096138;28;20428;-73
2023/04/01 21:14:03;;;;;;;;;;;;;;;;;;5096101;28;20421;-73
2023/04/01 21:17:06;;;;;;;;;;;;;;;;;;5096050;28;19919;-73
2023/04/01 21:20:09;;;;;;;;;;;;;;;;;;5095874;28;19919;-73
2023/04/01 21:23:12;;;;;;;;;;;;;;;;;;5095913;28;20327;-73